Time;durP1;ratioP1;P1;durP2;ratioP2;P2;SDS_P1;SDS_P2;PMS_P1;PMS_P2;Temp;Humidity;BMP_temperature;BMP_pressure;BME280_temperature;BME280_humidity;BME280_pressure;Samples;Min_cycle;Max_cycle;Signal;HPM_P1;HPM_P2
2022/04/27 00:01:12;;;;;;;20.83;17.13;;;;;;;;;;4974402;28;20243;-36
2022/04/27 00:03:38;;;;;;;23.53;16.53;;;;;;;;;;4975620;28;20352;-36
2022/04/27 00:06:05;;;;;;;21.30;17.17;;;;;;;;;;4978006;28;20200;-36
2022/04/27 00:08:31;;;;;;;20.13;14.60;;;;;;;;;;4976270;28;20252;-36
2022/04/27 00:10:57;;;;;;;20.63;14.27;;;;;;;;;;4977726;28;20551;-36
2022/04/27 00:13:23;;;;;;;17.33;14.43;;;;;;;;;;4978812;28;20177;-36
2022/04/27 00:15:49;;;;;;;16.20;12.73;;;;;;;;;;4977134;28;20600;-36
2022/04/27 00:18:15;;;;;;;20.60;13.20;;;;;;;;;;4976010;28;20716;-36
2022/04/27 00:20:42;;;;;;;18.47;14.17;;;;;;;;;;4977034;28;20177;-36
2022/04/27 00:23:08;;;;;;;22.13;15.33;;;;;;;;;;4981528;28;20205;-36
2022/04/27 00:25:35;;;;;;;19.57;14.60;;;;;;;;;;4979784;28;20272;-36
2022/04/27 00:28:01;;;;;;;22.80;14.43;;;;;;;;;;4975797;28;20561;-36
2022/04/27 00:30:27;;;;;;;20.47;15.10;;;;;;;;;;4978284;28;20854;-36
2022/04/27 00:32:53;;;;;;;19.27;16.20;;;;;;;;;;4978378;28;20862;-36
2022/04/27 00:35:19;;;;;;;20.80;15.10;;;;;;;;;;4976416;28;20891;-36
2022/04/27 00:37:46;;;;;;;22.00;15.20;;;;;;;;;;4980572;28;20185;-36
2022/04/27 00:40:12;;;;;;;21.90;15.33;;;;;;;;;;4980952;28;20173;-36
2022/04/27 00:42:38;;;;;;;20.97;15.30;;;;;;;;;;4978657;28;20255;-36
2022/04/27 00:45:05;;;;;;;21.50;15.87;;;;;;;;;;4976537;28;21436;-36
2022/04/27 00:47:31;;;;;;;21.17;17.03;;;;;;;;;;4980712;28;20177;-36
2022/04/27 00:49:58;;;;;;;21.33;15.93;;;;;;;;;;4977599;28;20775;-36
2022/04/27 00:52:24;;;;;;;20.87;15.47;;;;;;;;;;4981170;28;20869;-36
2022/04/27 00:54:55;;;;;;;21.67;16.03;;;;;;;;;;4977736;28;20490;-36
2022/04/27 00:57:23;;;;;;;25.37;16.70;;;;;;;;;;4978831;28;20246;-36
2022/04/27 00:59:49;;;;;;;22.47;16.67;;;;;;;;;;4979027;28;20173;-36
2022/04/27 01:02:18;;;;;;;24.43;17.30;;;;;;;;;;4973616;28;20306;-36
2022/04/27 01:04:45;;;;;;;23.97;16.53;;;;;;;;;;4976130;28;20165;-36
2022/04/27 01:07:11;;;;;;;23.83;17.53;;;;;;;;;;4979251;28;20570;-36
2022/04/27 01:09:38;;;;;;;20.77;15.87;;;;;;;;;;4973184;28;20169;-36
2022/04/27 01:12:04;;;;;;;22.10;16.43;;;;;;;;;;4976807;28;20567;-36
2022/04/27 01:14:41;;;;;;;23.13;17.37;;;;;;;;;;4976471;28;20948;-36
2022/04/27 01:17:07;;;;;;;23.23;16.57;;;;;;;;;;4976926;28;20286;-36
2022/04/27 01:19:33;;;;;;;22.13;15.73;;;;;;;;;;4977734;28;20180;-36
2022/04/27 01:22:00;;;;;;;23.13;17.20;;;;;;;;;;4978970;28;20194;-36
2022/04/27 01:24:26;;;;;;;21.87;15.70;;;;;;;;;;4982263;28;20227;-36
2022/04/27 01:26:53;;;;;;;21.97;16.10;;;;;;;;;;4976399;28;20890;-37
2022/04/27 01:29:19;;;;;;;24.83;16.93;;;;;;;;;;4976862;28;20174;-36
2022/04/27 01:31:46;;;;;;;20.70;15.70;;;;;;;;;;4978062;28;20299;-36
2022/04/27 01:34:12;;;;;;;23.20;16.73;;;;;;;;;;4979621;28;20323;-36
2022/04/27 01:36:39;;;;;;;22.03;16.50;;;;;;;;;;4979061;28;20185;-36
2022/04/27 01:39:05;;;;;;;22.60;17.07;;;;;;;;;;4977477;28;20449;-36
2022/04/27 01:41:31;;;;;;;18.53;15.40;;;;;;;;;;4981089;28;20668;-36
2022/04/27 01:43:58;;;;;;;22.03;16.17;;;;;;;;;;4978160;28;20302;-36
2022/04/27 01:46:24;;;;;;;20.53;16.00;;;;;;;;;;4976450;28;20169;-36
2022/04/27 01:48:50;;;;;;;21.90;16.43;;;;;;;;;;4978090;28;20181;-36
2022/04/27 01:51:18;;;;;;;20.20;15.57;;;;;;;;;;4978644;28;20590;-36
2022/04/27 01:56:29;;;;;;;21.27;16.17;;;;;;;;;;4974781;28;20253;-36
2022/04/27 01:58:55;;;;;;;23.37;16.63;;;;;;;;;;4975163;28;20642;-37
2022/04/27 02:01:21;;;;;;;23.07;15.63;;;;;;;;;;4977171;28;20569;-36
2022/04/27 02:03:48;;;;;;;23.87;15.40;;;;;;;;;;4977030;28;20304;-36
2022/04/27 02:06:16;;;;;;;19.90;16.13;;;;;;;;;;4976234;28;20199;-35
2022/04/27 02:08:42;;;;;;;21.60;16.20;;;;;;;;;;4979701;28;20555;-36
2022/04/27 02:11:09;;;;;;;26.63;17.90;;;;;;;;;;4976059;28;20471;-36
2022/04/27 02:13:35;;;;;;;27.13;18.07;;;;;;;;;;4974510;28;20183;-36
2022/04/27 02:16:01;;;;;;;23.43;17.50;;;;;;;;;;4977551;28;20180;-36
2022/04/27 02:18:27;;;;;;;25.27;17.70;;;;;;;;;;4979077;28;20176;-36
2022/04/27 02:20:56;;;;;;;22.83;16.83;;;;;;;;;;4976436;28;20431;-36
2022/04/27 02:23:22;;;;;;;25.27;18.13;;;;;;;;;;4976293;28;20546;-36
2022/04/27 02:25:48;;;;;;;24.00;18.90;;;;;;;;;;4976393;28;20179;-36
2022/04/27 02:28:14;;;;;;;28.70;19.23;;;;;;;;;;4976903;28;20638;-36
2022/04/27 02:30:40;;;;;;;27.10;19.70;;;;;;;;;;4977096;28;20646;-36
2022/04/27 02:33:06;;;;;;;25.80;19.07;;;;;;;;;;4975803;28;20195;-36
2022/04/27 02:35:33;;;;;;;27.20;20.27;;;;;;;;;;4976324;28;20509;-36
2022/04/27 02:37:59;;;;;;;27.27;19.53;;;;;;;;;;4993809;28;20262;-36
2022/04/27 02:40:25;;;;;;;31.63;21.60;;;;;;;;;;4978896;28;20212;-36
2022/04/27 02:42:52;;;;;;;28.17;20.50;;;;;;;;;;4979370;28;20915;-36
2022/04/27 02:45:18;;;;;;;31.57;21.50;;;;;;;;;;4981123;28;20168;-36
2022/04/27 02:47:44;;;;;;;27.60;21.27;;;;;;;;;;4981494;28;20243;-37
2022/04/27 02:52:55;;;;;;;29.87;21.53;;;;;;;;;;4981686;28;20185;-36
2022/04/27 02:55:22;;;;;;;28.67;20.53;;;;;;;;;;4980028;28;20166;-36
2022/04/27 02:57:49;;;;;;;28.20;21.23;;;;;;;;;;4983644;28;20803;-37
2022/04/27 03:00:16;;;;;;;31.03;20.93;;;;;;;;;;4981191;28;20184;-37
2022/04/27 03:02:42;;;;;;;30.03;21.23;;;;;;;;;;4978536;28;20224;-36
2022/04/27 03:05:08;;;;;;;37.43;23.27;;;;;;;;;;4976197;28;20825;-36
2022/04/27 03:07:34;;;;;;;36.37;23.43;;;;;;;;;;4976783;28;20177;-35
2022/04/27 03:10:00;;;;;;;36.43;24.30;;;;;;;;;;4978676;28;20736;-36
2022/04/27 03:12:27;;;;;;;34.10;23.30;;;;;;;;;;4976192;28;20195;-36
2022/04/27 03:14:53;;;;;;;35.47;24.60;;;;;;;;;;4979059;28;20188;-35
2022/04/27 03:17:19;;;;;;;33.60;23.83;;;;;;;;;;4981852;28;20739;-36
2022/04/27 03:19:45;;;;;;;34.07;24.30;;;;;;;;;;4980668;28;20679;-36
2022/04/27 03:22:11;;;;;;;27.97;21.73;;;;;;;;;;4978094;28;20264;-36
2022/04/27 03:24:37;;;;;;;33.57;23.13;;;;;;;;;;4979462;28;20384;-35
2022/04/27 03:27:05;;;;;;;40.63;27.90;;;;;;;;;;4979607;28;20403;-36
2022/04/27 03:29:31;;;;;;;41.83;29.80;;;;;;;;;;4979212;28;20165;-35
2022/04/27 03:31:57;;;;;;;34.97;25.27;;;;;;;;;;4977871;28;20817;-36
2022/04/27 03:34:23;;;;;;;46.57;29.67;;;;;;;;;;4978340;28;20487;-36
2022/04/27 03:36:49;;;;;;;43.70;31.37;;;;;;;;;;4978370;28;20200;-35
2022/04/27 03:39:15;;;;;;;38.93;28.73;;;;;;;;;;4980183;28;20623;-36
2022/04/27 03:41:41;;;;;;;43.03;29.80;;;;;;;;;;4979041;28;20455;-36
2022/04/27 03:44:07;;;;;;;40.80;29.53;;;;;;;;;;4981537;28;20268;-35
2022/04/27 03:46:33;;;;;;;38.87;28.70;;;;;;;;;;4980173;28;20609;-36
2022/04/27 03:48:59;;;;;;;39.10;27.73;;;;;;;;;;4979221;28;20184;-35
2022/04/27 03:51:26;;;;;;;44.23;31.30;;;;;;;;;;4980995;28;21059;-35
2022/04/27 03:53:52;;;;;;;42.67;29.50;;;;;;;;;;4975541;28;20181;-36
2022/04/27 03:56:18;;;;;;;36.20;26.37;;;;;;;;;;4977508;28;20236;-35
2022/04/27 03:58:44;;;;;;;32.03;23.23;;;;;;;;;;4979625;28;20663;-35
2022/04/27 04:01:10;;;;;;;29.83;19.70;;;;;;;;;;4979381;28;20464;-36
2022/04/27 04:03:36;;;;;;;29.13;19.63;;;;;;;;;;4976684;28;20390;-36
2022/04/27 04:06:02;;;;;;;24.53;17.63;;;;;;;;;;4976578;28;20188;-36
2022/04/27 04:08:28;;;;;;;26.03;18.10;;;;;;;;;;4978668;28;20474;-36
2022/04/27 04:10:54;;;;;;;24.67;16.83;;;;;;;;;;4980751;28;20641;-37
2022/04/27 04:13:20;;;;;;;25.17;16.93;;;;;;;;;;4987102;28;20185;-37
2022/04/27 04:15:46;;;;;;;32.70;21.03;;;;;;;;;;4978073;28;20228;-36
2022/04/27 04:18:13;;;;;;;28.53;20.33;;;;;;;;;;4978089;28;20779;-37
2022/04/27 04:20:39;;;;;;;36.77;22.37;;;;;;;;;;4977354;28;20428;-37
2022/04/27 04:23:05;;;;;;;33.17;22.47;;;;;;;;;;4980439;28;20549;-36
2022/04/27 04:28:31;;;;;;;31.90;23.27;;;;;;;;;;4977583;28;20424;-36
2022/04/27 04:30:58;;;;;;;36.13;25.27;;;;;;;;;;4973753;28;20413;-37
2022/04/27 04:33:24;;;;;;;35.03;26.23;;;;;;;;;;4979698;28;20192;-36
2022/04/27 04:35:51;;;;;;;37.67;26.70;;;;;;;;;;5006486;28;20442;-37
2022/04/27 04:38:18;;;;;;;35.07;25.83;;;;;;;;;;4977026;28;20743;-37
2022/04/27 04:40:44;;;;;;;39.50;26.07;;;;;;;;;;4981049;28;20446;-36
2022/04/27 04:43:11;;;;;;;33.87;22.10;;;;;;;;;;4976465;28;20275;-37
2022/04/27 04:45:37;;;;;;;34.33;22.57;;;;;;;;;;4975804;28;20173;-36
2022/04/27 04:48:03;;;;;;;34.33;24.10;;;;;;;;;;4976703;28;20893;-37
2022/04/27 04:50:29;;;;;;;41.03;25.33;;;;;;;;;;4978432;28;20829;-36
2022/04/27 04:52:55;;;;;;;36.83;24.40;;;;;;;;;;4979446;28;20440;-36
2022/04/27 04:55:21;;;;;;;38.23;26.17;;;;;;;;;;4972992;28;20436;-37
2022/04/27 04:57:47;;;;;;;40.00;28.13;;;;;;;;;;4979626;28;20285;-36
2022/04/27 05:00:14;;;;;;;37.63;26.80;;;;;;;;;;4979417;28;20924;-37
2022/04/27 05:02:40;;;;;;;43.90;28.43;;;;;;;;;;4979057;28;20715;-39
2022/04/27 05:05:06;;;;;;;45.50;27.43;;;;;;;;;;4979581;28;20956;-37
2022/04/27 05:07:33;;;;;;;40.87;29.30;;;;;;;;;;4977857;28;20188;-37
2022/04/27 05:10:00;;;;;;;42.77;29.23;;;;;;;;;;4976444;28;20463;-37
2022/04/27 05:12:26;;;;;;;44.53;31.67;;;;;;;;;;4977944;28;20248;-38
2022/04/27 05:14:52;;;;;;;48.43;31.83;;;;;;;;;;4981120;28;20855;-38
2022/04/27 05:17:19;;;;;;;50.23;33.50;;;;;;;;;;4977644;28;20207;-37
2022/04/27 05:19:45;;;;;;;45.87;33.43;;;;;;;;;;4977469;28;20692;-37
2022/04/27 05:22:11;;;;;;;50.73;35.07;;;;;;;;;;4974497;28;20502;-37
2022/04/27 05:24:37;;;;;;;54.30;35.10;;;;;;;;;;4976283;28;20196;-38
2022/04/27 05:27:04;;;;;;;58.73;37.43;;;;;;;;;;4979340;28;20177;-37
2022/04/27 05:32:14;;;;;;;52.30;36.03;;;;;;;;;;4974912;28;20258;-37
2022/04/27 05:34:40;;;;;;;58.43;40.47;;;;;;;;;;4983696;28;20173;-37
2022/04/27 05:37:07;;;;;;;67.97;42.63;;;;;;;;;;4980315;28;20197;-37
2022/04/27 05:39:33;;;;;;;60.37;39.67;;;;;;;;;;4975095;28;20181;-38
2022/04/27 05:41:59;;;;;;;65.87;45.53;;;;;;;;;;4980299;28;20427;-38
2022/04/27 05:44:26;;;;;;;68.83;45.93;;;;;;;;;;4976996;28;20177;-38
2022/04/27 05:46:53;;;;;;;68.13;48.23;;;;;;;;;;4972947;28;20803;-38
2022/04/27 05:49:19;;;;;;;69.93;48.27;;;;;;;;;;4975740;28;20538;-38
2022/04/27 05:51:46;;;;;;;73.23;49.57;;;;;;;;;;4978216;28;20809;-38
2022/04/27 05:54:14;;;;;;;71.27;49.53;;;;;;;;;;4978756;28;20176;-38
2022/04/27 05:56:40;;;;;;;65.10;46.23;;;;;;;;;;4975641;28;20180;-38
2022/04/27 05:59:07;;;;;;;71.43;49.33;;;;;;;;;;4984859;28;20974;-38
2022/04/27 06:01:33;;;;;;;69.97;50.53;;;;;;;;;;4984287;28;20252;-38
2022/04/27 06:03:59;;;;;;;77.10;51.07;;;;;;;;;;4974107;28;20783;-38
2022/04/27 06:06:25;;;;;;;64.17;44.97;;;;;;;;;;4974853;28;20242;-38
2022/04/27 06:08:51;;;;;;;62.10;41.73;;;;;;;;;;4976262;28;20173;-38
2022/04/27 06:11:19;;;;;;;67.37;43.57;;;;;;;;;;4975616;28;20585;-37
2022/04/27 06:13:45;;;;;;;60.57;41.90;;;;;;;;;;4979430;28;20172;-38
2022/04/27 06:16:11;;;;;;;49.30;35.33;;;;;;;;;;4977417;28;20189;-38
2022/04/27 06:18:40;;;;;;;57.07;36.83;;;;;;;;;;4982231;28;20246;-38
2022/04/27 06:21:06;;;;;;;51.03;34.00;;;;;;;;;;4980437;28;20250;-38
2022/04/27 06:23:33;;;;;;;46.03;31.13;;;;;;;;;;4979790;28;20247;-38
2022/04/27 06:25:59;;;;;;;45.47;31.60;;;;;;;;;;4980312;28;20177;-38
2022/04/27 06:28:25;;;;;;;46.43;31.60;;;;;;;;;;4981605;28;20211;-38
2022/04/27 06:30:51;;;;;;;44.80;29.10;;;;;;;;;;4981375;28;20453;-38
2022/04/27 06:33:18;;;;;;;38.07;26.70;;;;;;;;;;4971595;28;20630;-39
2022/04/27 06:35:46;;;;;;;43.40;26.77;;;;;;;;;;4977971;28;20177;-38
2022/04/27 06:38:12;;;;;;;37.40;24.17;;;;;;;;;;4971544;28;20721;-38
2022/04/27 06:40:38;;;;;;;32.43;22.53;;;;;;;;;;4978914;28;20571;-38
2022/04/27 06:43:04;;;;;;;35.67;23.07;;;;;;;;;;4978500;28;20531;-38
2022/04/27 06:45:31;;;;;;;38.17;24.53;;;;;;;;;;4977387;28;20191;-38
2022/04/27 06:47:57;;;;;;;38.13;24.23;;;;;;;;;;4976178;28;20976;-38
2022/04/27 06:50:25;;;;;;;38.20;24.47;;;;;;;;;;4983152;28;20371;-38
2022/04/27 06:52:53;;;;;;;35.27;23.80;;;;;;;;;;4980291;28;20644;-38
2022/04/27 06:55:19;;;;;;;33.73;24.67;;;;;;;;;;4981465;28;21049;-39
2022/04/27 06:57:45;;;;;;;35.60;24.37;;;;;;;;;;4977336;28;20559;-39
2022/04/27 07:00:14;;;;;;;41.30;25.40;;;;;;;;;;4975978;28;20557;-38
2022/04/27 07:02:41;;;;;;;37.97;25.00;;;;;;;;;;4979059;28;20236;-38
2022/04/27 07:05:18;;;;;;;37.43;23.60;;;;;;;;;;4979501;28;20700;-38
2022/04/27 07:07:44;;;;;;;38.67;22.97;;;;;;;;;;4976216;28;20832;-38
2022/04/27 07:10:12;;;;;;;33.43;22.37;;;;;;;;;;4977773;28;20420;-39
2022/04/27 07:12:38;;;;;;;32.97;22.03;;;;;;;;;;4979283;28;20184;-38
2022/04/27 07:15:04;;;;;;;35.80;24.70;;;;;;;;;;4977106;28;20341;-38
2022/04/27 07:17:31;;;;;;;34.73;26.17;;;;;;;;;;4973802;28;20185;-38
2022/04/27 07:19:57;;;;;;;34.27;25.97;;;;;;;;;;4976946;28;20694;-38
2022/04/27 07:22:23;;;;;;;31.27;24.47;;;;;;;;;;4979813;28;20933;-38
2022/04/27 07:24:49;;;;;;;40.27;27.27;;;;;;;;;;4979687;28;20546;-38
2022/04/27 07:27:16;;;;;;;37.20;26.73;;;;;;;;;;4976462;28;20184;-38
2022/04/27 07:29:42;;;;;;;38.30;26.17;;;;;;;;;;4975083;28;20550;-39
2022/04/27 07:32:08;;;;;;;34.63;24.27;;;;;;;;;;4974796;28;20300;-38
2022/04/27 07:34:35;;;;;;;30.47;23.30;;;;;;;;;;4978001;28;20279;-38
2022/04/27 07:37:02;;;;;;;31.37;23.53;;;;;;;;;;4978364;28;20229;-39
2022/04/27 07:39:29;;;;;;;32.27;23.30;;;;;;;;;;4979087;28;20532;-39
2022/04/27 07:41:55;;;;;;;31.50;23.53;;;;;;;;;;4996820;28;20211;-38
2022/04/27 07:44:21;;;;;;;34.07;25.30;;;;;;;;;;4983592;28;20204;-38
2022/04/27 07:46:47;;;;;;;31.33;24.50;;;;;;;;;;4979873;28;20697;-40
2022/04/27 07:49:20;;;;;;;32.73;23.63;;;;;;;;;;4977990;28;21004;-38
2022/04/27 07:51:47;;;;;;;31.43;23.57;;;;;;;;;;4980440;28;20196;-38
2022/04/27 07:54:13;;;;;;;35.50;25.83;;;;;;;;;;4977493;28;20172;-38
2022/04/27 07:56:40;;;;;;;30.07;22.83;;;;;;;;;;4975863;28;20901;-39
2022/04/27 07:59:06;;;;;;;31.03;23.00;;;;;;;;;;4976981;28;20619;-38
2022/04/27 08:01:32;;;;;;;31.67;24.37;;;;;;;;;;4979655;28;20469;-39
2022/04/27 08:03:58;;;;;;;34.20;25.57;;;;;;;;;;4977872;28;20311;-39
2022/04/27 08:06:25;;;;;;;34.93;25.77;;;;;;;;;;4978941;28;21048;-38
2022/04/27 08:08:51;;;;;;;32.80;25.77;;;;;;;;;;4983028;28;20177;-39
2022/04/27 08:11:17;;;;;;;31.53;25.10;;;;;;;;;;4978625;28;20181;-39
2022/04/27 08:13:44;;;;;;;33.60;25.70;;;;;;;;;;4974404;28;20574;-39
2022/04/27 08:16:13;;;;;;;36.40;27.20;;;;;;;;;;4979566;28;20510;-38
2022/04/27 08:18:40;;;;;;;39.53;28.27;;;;;;;;;;4978765;28;20604;-39
2022/04/27 08:21:15;;;;;;;35.47;26.40;;;;;;;;;;4975927;28;20185;-38
2022/04/27 08:23:42;;;;;;;36.27;27.20;;;;;;;;;;4978820;28;20263;-39
2022/04/27 08:26:10;;;;;;;37.57;29.00;;;;;;;;;;4982122;28;21070;-39
2022/04/27 08:28:39;;;;;;;40.13;28.07;;;;;;;;;;4977800;28;20193;-38
2022/04/27 08:31:06;;;;;;;37.97;27.40;;;;;;;;;;4977331;28;20173;-37
2022/04/27 08:33:32;;;;;;;37.50;28.80;;;;;;;;;;4973969;28;20193;-38
2022/04/27 08:35:59;;;;;;;37.53;27.70;;;;;;;;;;4973201;28;20252;-38
2022/04/27 08:38:25;;;;;;;39.43;29.00;;;;;;;;;;4978439;28;20184;-37
2022/04/27 08:40:52;;;;;;;38.43;27.93;;;;;;;;;;4978298;28;20176;-37
2022/04/27 08:43:18;;;;;;;35.37;28.63;;;;;;;;;;4976488;28;20193;-37
2022/04/27 08:45:45;;;;;;;35.87;28.97;;;;;;;;;;4979336;28;20195;-37
2022/04/27 08:48:12;;;;;;;38.90;29.23;;;;;;;;;;4980757;28;20612;-38
2022/04/27 08:50:39;;;;;;;38.77;28.90;;;;;;;;;;4977642;28;20275;-37
2022/04/27 08:53:05;;;;;;;44.33;32.00;;;;;;;;;;4975238;28;20182;-37
2022/04/27 08:55:31;;;;;;;39.00;30.57;;;;;;;;;;4976618;28;20192;-38
2022/04/27 08:58:08;;;;;;;41.90;31.37;;;;;;;;;;4977888;28;20185;-38
2022/04/27 09:00:34;;;;;;;36.83;30.70;;;;;;;;;;4977445;28;20826;-38
2022/04/27 09:03:19;;;;;;;39.00;31.10;;;;;;;;;;4974962;28;20854;-38
2022/04/27 09:05:55;;;;;;;39.57;29.30;;;;;;;;;;4976135;28;20528;-38
2022/04/27 09:08:24;;;;;;;38.13;29.57;;;;;;;;;;4978189;28;20168;-38
2022/04/27 09:10:50;;;;;;;39.90;30.87;;;;;;;;;;4971912;28;21003;-38
2022/04/27 09:13:16;;;;;;;37.27;29.57;;;;;;;;;;4976581;28;20574;-38
2022/04/27 09:15:42;;;;;;;35.87;29.77;;;;;;;;;;4979771;28;20395;-38
2022/04/27 09:21:00;;;;;;;35.07;28.73;;;;;;;;;;4977416;28;20252;-38
2022/04/27 09:23:26;;;;;;;38.43;29.97;;;;;;;;;;4975755;28;20346;-39
2022/04/27 09:25:56;;;;;;;35.67;29.27;;;;;;;;;;4974115;28;20565;-39
2022/04/27 09:28:23;;;;;;;35.67;28.10;;;;;;;;;;4973866;28;20779;-38
2022/04/27 09:30:50;;;;;;;35.87;29.03;;;;;;;;;;4975483;28;20473;-39
2022/04/27 09:33:37;;;;;;;34.93;27.33;;;;;;;;;;4976654;28;20180;-39
2022/04/27 09:36:18;;;;;;;33.93;27.30;;;;;;;;;;4976437;28;20488;-38
2022/04/27 09:38:44;;;;;;;32.73;27.70;;;;;;;;;;4972418;28;20300;-38
2022/04/27 09:41:10;;;;;;;31.27;26.00;;;;;;;;;;4978162;28;20181;-38
2022/04/27 09:43:42;;;;;;;31.83;27.43;;;;;;;;;;4975385;28;20644;-39
2022/04/27 09:46:25;;;;;;;40.03;29.83;;;;;;;;;;4974111;28;20200;-38
2022/04/27 09:49:11;;;;;;;38.80;28.60;;;;;;;;;;4975794;28;20165;-39
2022/04/27 09:51:37;;;;;;;41.50;28.73;;;;;;;;;;4976392;28;20567;-39
2022/04/27 09:54:04;;;;;;;33.57;27.43;;;;;;;;;;4973844;28;20343;-39
2022/04/27 09:56:41;;;;;;;34.90;28.43;;;;;;;;;;4972098;28;20295;-39
2022/04/27 09:59:07;;;;;;;33.07;27.60;;;;;;;;;;4975814;28;20173;-39
2022/04/27 10:01:37;;;;;;;48.87;28.33;;;;;;;;;;4974601;28;20196;-38
2022/04/27 10:04:06;;;;;;;37.27;29.03;;;;;;;;;;4973279;28;20945;-38
2022/04/27 10:06:32;;;;;;;35.40;30.17;;;;;;;;;;4976588;28;20345;-38
2022/04/27 10:09:02;;;;;;;34.33;27.47;;;;;;;;;;4975693;28;20720;-38
2022/04/27 10:11:29;;;;;;;36.33;28.27;;;;;;;;;;4970031;28;20378;-39
2022/04/27 10:13:55;;;;;;;33.83;27.97;;;;;;;;;;4971163;28;20181;-39
2022/04/27 10:16:25;;;;;;;34.03;27.63;;;;;;;;;;4973462;28;20398;-38
2022/04/27 10:18:52;;;;;;;34.27;27.37;;;;;;;;;;4977747;28;20751;-38
2022/04/27 10:21:43;;;;;;;34.40;26.87;;;;;;;;;;4976330;28;20176;-39
2022/04/27 10:24:12;;;;;;;32.53;26.23;;;;;;;;;;4968766;28;20228;-38
2022/04/27 10:26:39;;;;;;;33.40;26.47;;;;;;;;;;4969952;28;20605;-37
2022/04/27 10:29:06;;;;;;;32.67;26.10;;;;;;;;;;4975713;28;20266;-38
2022/04/27 10:31:46;;;;;;;34.90;27.80;;;;;;;;;;4974125;28;20699;-38
2022/04/27 10:34:21;;;;;;;33.87;26.70;;;;;;;;;;4972660;28;20191;-37
2022/04/27 10:36:50;;;;;;;31.57;25.27;;;;;;;;;;4975873;28;20189;-37
2022/04/27 10:39:19;;;;;;;31.90;25.83;;;;;;;;;;4975386;28;20180;-39
2022/04/27 10:41:55;;;;;;;30.50;23.50;;;;;;;;;;4972130;28;20208;-38
2022/04/27 10:44:22;;;;;;;32.47;25.40;;;;;;;;;;4975095;28;20630;-38
2022/04/27 10:46:48;;;;;;;31.70;25.13;;;;;;;;;;4976675;28;20619;-39
2022/04/27 10:49:24;;;;;;;29.67;23.93;;;;;;;;;;4972334;28;20220;-38
2022/04/27 10:52:06;;;;;;;26.73;22.03;;;;;;;;;;4976409;28;20189;-38
2022/04/27 10:54:39;;;;;;;32.63;22.60;;;;;;;;;;4971152;28;20408;-38
2022/04/27 10:57:28;;;;;;;26.90;22.73;;;;;;;;;;4972752;28;21159;-38
2022/04/27 10:59:54;;;;;;;28.77;21.00;;;;;;;;;;4970753;28;20180;-40
2022/04/27 11:02:37;;;;;;;27.73;20.60;;;;;;;;;;4975885;28;20211;-38
2022/04/27 11:05:04;;;;;;;28.30;21.03;;;;;;;;;;4991474;28;20486;-38
2022/04/27 11:07:53;;;;;;;27.27;19.73;;;;;;;;;;4973605;28;20284;-39
2022/04/27 11:10:24;;;;;;;26.93;18.70;;;;;;;;;;4972014;28;20228;-38
2022/04/27 11:12:53;;;;;;;26.47;19.37;;;;;;;;;;4977941;28;20316;-38
2022/04/27 11:15:24;;;;;;;22.37;17.63;;;;;;;;;;4973410;28;20384;-38
2022/04/27 11:17:55;;;;;;;21.73;16.77;;;;;;;;;;4973060;28;20209;-37
2022/04/27 11:20:33;;;;;;;21.43;15.37;;;;;;;;;;4980185;28;20574;-38
2022/04/27 11:23:01;;;;;;;23.33;18.60;;;;;;;;;;4989432;28;20875;-38
2022/04/27 11:25:31;;;;;;;24.07;17.33;;;;;;;;;;4976009;28;20252;-38
2022/04/27 11:27:57;;;;;;;20.43;15.07;;;;;;;;;;4975254;28;20811;-38
2022/04/27 11:30:24;;;;;;;18.00;14.53;;;;;;;;;;4978246;28;21001;-38
2022/04/27 11:32:50;;;;;;;19.03;13.77;;;;;;;;;;4981738;28;20177;-38
2022/04/27 11:35:17;;;;;;;17.97;13.30;;;;;;;;;;4974575;28;20184;-38
2022/04/27 11:37:43;;;;;;;21.90;14.80;;;;;;;;;;4972735;28;20848;-38
2022/04/27 11:40:16;;;;;;;23.17;16.07;;;;;;;;;;4976297;28;20514;-38
2022/04/27 11:42:43;;;;;;;21.17;14.80;;;;;;;;;;4976934;28;20200;-38
2022/04/27 11:45:10;;;;;;;19.23;15.13;;;;;;;;;;4975709;28;20679;-37
2022/04/27 11:47:37;;;;;;;18.87;13.80;;;;;;;;;;4973387;28;20173;-38
2022/04/27 11:50:04;;;;;;;20.50;14.77;;;;;;;;;;4978303;28;20528;-37
2022/04/27 11:52:31;;;;;;;18.67;12.90;;;;;;;;;;4976762;28;20492;-37
2022/04/27 11:55:03;;;;;;;15.40;12.57;;;;;;;;;;4975350;28;20508;-39
2022/04/27 11:57:29;;;;;;;17.43;12.13;;;;;;;;;;4975046;28;20176;-37
2022/04/27 11:59:57;;;;;;;16.77;12.80;;;;;;;;;;4978174;28;20185;-37
2022/04/27 12:02:25;;;;;;;15.47;11.93;;;;;;;;;;4977387;28;20200;-37
2022/04/27 12:04:51;;;;;;;17.20;11.33;;;;;;;;;;4973929;28;20211;-37
2022/04/27 12:07:20;;;;;;;16.10;10.97;;;;;;;;;;4974138;28;20748;-37
2022/04/27 12:09:56;;;;;;;15.47;10.50;;;;;;;;;;4975809;28;20419;-38
2022/04/27 12:12:23;;;;;;;11.90;9.03;;;;;;;;;;4975544;28;20867;-37
2022/04/27 12:14:49;;;;;;;15.77;9.53;;;;;;;;;;4976641;28;20177;-37
2022/04/27 12:17:34;;;;;;;13.13;8.90;;;;;;;;;;4975153;28;20429;-37
2022/04/27 12:20:00;;;;;;;11.97;8.67;;;;;;;;;;4977043;28;20231;-38
2022/04/27 12:22:26;;;;;;;13.57;8.80;;;;;;;;;;4978235;28;20245;-38
2022/04/27 12:24:52;;;;;;;13.23;9.40;;;;;;;;;;4976925;28;20632;-37
2022/04/27 12:27:19;;;;;;;13.20;10.13;;;;;;;;;;4975490;28;20170;-38
2022/04/27 12:29:45;;;;;;;12.37;9.83;;;;;;;;;;4974454;28;20638;-38
2022/04/27 12:32:12;;;;;;;13.90;8.30;;;;;;;;;;4974457;28;20517;-38
2022/04/27 12:37:30;;;;;;;10.23;7.47;;;;;;;;;;4979166;28;20203;-39
2022/04/27 12:39:57;;;;;;;11.00;7.77;;;;;;;;;;4980262;28;20169;-37
2022/04/27 12:42:23;;;;;;;12.23;8.03;;;;;;;;;;4975966;28;20211;-37
2022/04/27 12:44:49;;;;;;;11.53;7.03;;;;;;;;;;4974775;28;20173;-38
2022/04/27 12:47:16;;;;;;;11.80;8.10;;;;;;;;;;4975407;28;20320;-37
2022/04/27 12:49:50;;;;;;;10.83;7.70;;;;;;;;;;4979230;28;20998;-37
2022/04/27 12:52:17;;;;;;;11.63;7.40;;;;;;;;;;4978019;28;20605;-38
2022/04/27 12:54:44;;;;;;;10.03;7.87;;;;;;;;;;4976413;28;20633;-37
2022/04/27 12:57:10;;;;;;;10.03;7.40;;;;;;;;;;4974226;28;20495;-42
2022/04/27 12:59:55;;;;;;;9.83;7.00;;;;;;;;;;4978940;28;21287;-37
2022/04/27 13:02:22;;;;;;;12.50;7.07;;;;;;;;;;4977795;28;20201;-38
2022/04/27 13:04:48;;;;;;;9.30;6.40;;;;;;;;;;4975402;28;20662;-38
2022/04/27 13:07:14;;;;;;;8.50;6.30;;;;;;;;;;4971122;28;20173;-37
2022/04/27 13:12:30;;;;;;;9.10;6.10;;;;;;;;;;4972452;28;20188;-37
2022/04/27 13:14:56;;;;;;;9.47;5.10;;;;;;;;;;4974276;28;20259;-37
2022/04/27 13:17:22;;;;;;;9.00;4.83;;;;;;;;;;4974348;28;20490;-37
2022/04/27 13:19:48;;;;;;;6.90;4.80;;;;;;;;;;4977653;28;20177;-38
2022/04/27 13:22:14;;;;;;;7.43;5.80;;;;;;;;;;4975300;28;20639;-38
2022/04/27 13:24:40;;;;;;;7.27;4.73;;;;;;;;;;4976009;28;20174;-38
2022/04/27 13:27:06;;;;;;;7.43;4.90;;;;;;;;;;4974272;28;20307;-37
2022/04/27 13:29:32;;;;;;;6.60;4.50;;;;;;;;;;4978447;28;20169;-39
2022/04/27 13:31:59;;;;;;;7.83;5.10;;;;;;;;;;4979305;28;20845;-38
2022/04/27 13:34:25;;;;;;;5.70;4.73;;;;;;;;;;4976314;28;20431;-38
2022/04/27 13:36:51;;;;;;;7.47;4.00;;;;;;;;;;4977117;28;20806;-37
2022/04/27 13:39:20;;;;;;;6.17;3.97;;;;;;;;;;4978862;28;20276;-37
2022/04/27 13:41:46;;;;;;;10.80;5.07;;;;;;;;;;4978597;28;20239;-37
2022/04/27 13:44:12;;;;;;;5.43;4.33;;;;;;;;;;4975595;28;20710;-37
2022/04/27 13:46:39;;;;;;;7.23;4.67;;;;;;;;;;4976687;28;20629;-37
2022/04/27 13:49:05;;;;;;;9.13;4.83;;;;;;;;;;4977009;28;20389;-38
2022/04/27 13:51:32;;;;;;;5.60;4.43;;;;;;;;;;4977620;28;21210;-38
2022/04/27 13:53:59;;;;;;;7.13;4.30;;;;;;;;;;4977070;28;20548;-37
2022/04/27 13:56:26;;;;;;;7.17;4.90;;;;;;;;;;4971648;28;20599;-38
2022/04/27 13:58:52;;;;;;;8.40;4.43;;;;;;;;;;4973551;28;20184;-37
2022/04/27 14:01:18;;;;;;;7.43;3.90;;;;;;;;;;4978380;28;20481;-38
2022/04/27 14:03:45;;;;;;;6.50;3.80;;;;;;;;;;4975983;28;21037;-37
2022/04/27 14:06:11;;;;;;;6.20;3.93;;;;;;;;;;4973042;28;20188;-38
2022/04/27 14:08:37;;;;;;;6.93;4.07;;;;;;;;;;4975878;28;20411;-37
2022/04/27 14:11:03;;;;;;;7.13;3.70;;;;;;;;;;4975061;28;20432;-37
2022/04/27 14:13:29;;;;;;;7.17;4.07;;;;;;;;;;4974886;28;20487;-38
2022/04/27 14:18:40;;;;;;;6.73;3.20;;;;;;;;;;4974771;28;20658;-38
2022/04/27 14:21:07;;;;;;;6.33;2.90;;;;;;;;;;4975928;28;21328;-38
2022/04/27 14:23:33;;;;;;;4.10;3.03;;;;;;;;;;4974430;28;20252;-38
2022/04/27 14:25:59;;;;;;;4.13;3.10;;;;;;;;;;4981304;28;20277;-38
2022/04/27 14:28:25;;;;;;;4.97;2.73;;;;;;;;;;4976969;28;20173;-37
2022/04/27 14:30:51;;;;;;;4.63;2.33;;;;;;;;;;4975168;28;20561;-38
2022/04/27 14:33:19;;;;;;;4.20;2.70;;;;;;;;;;4974094;28;20398;-38
2022/04/27 14:35:46;;;;;;;5.20;3.00;;;;;;;;;;4976166;28;20212;-38
2022/04/27 14:38:13;;;;;;;4.87;3.20;;;;;;;;;;4976238;28;20516;-38
2022/04/27 14:40:39;;;;;;;7.37;3.50;;;;;;;;;;4978662;28;20506;-37
2022/04/27 14:43:07;;;;;;;6.33;3.30;;;;;;;;;;4978855;28;20474;-38
2022/04/27 14:45:35;;;;;;;6.60;3.20;;;;;;;;;;4984742;28;20256;-37